createdAt,value
2016-09-20T00:00:52.395Z,1008.93
2016-09-20T00:01:52.430Z,1008.93
2016-09-20T00:02:52.249Z,1008.94
2016-09-20T00:03:52.264Z,1008.92
2016-09-20T00:04:52.326Z,1008.94
2016-09-20T00:05:52.725Z,1008.94
2016-09-20T00:06:52.320Z,1008.93
2016-09-20T00:07:52.238Z,1008.91
2016-09-20T00:08:52.438Z,1008.93
2016-09-20T00:09:52.289Z,1008.94
2016-09-20T00:10:52.739Z,1008.9
2016-09-20T00:11:52.894Z,1008.9
2016-09-20T00:12:52.215Z,1008.87
2016-09-20T00:13:52.145Z,1008.89
2016-09-20T00:14:52.694Z,1008.92
2016-09-20T00:15:52.682Z,1008.87
2016-09-20T00:16:52.560Z,1008.85
2016-09-20T00:17:52.578Z,1008.9
2016-09-20T00:18:53.152Z,1008.9
2016-09-20T00:19:52.919Z,1008.9
2016-09-20T00:20:52.765Z,1008.9
2016-09-20T00:21:52.443Z,1008.92
2016-09-20T00:22:52.664Z,1008.87
2016-09-20T00:23:52.704Z,1008.91
2016-09-20T00:24:52.510Z,1008.87
2016-09-20T00:25:52.653Z,1008.86
2016-09-20T00:26:52.508Z,1008.9
2016-09-20T00:27:52.598Z,1008.85
2016-09-20T00:28:52.589Z,1008.88
2016-09-20T00:29:53.149Z,1008.86
2016-09-20T00:30:52.520Z,1008.86
2016-09-20T00:31:52.774Z,1008.82
2016-09-20T00:32:52.449Z,1008.83
2016-09-20T00:33:52.545Z,1008.87
2016-09-20T00:34:52.790Z,1008.85
2016-09-20T00:35:53.164Z,1008.86
2016-09-20T00:36:53.988Z,1008.82
2016-09-20T00:37:52.744Z,1008.83
2016-09-20T00:38:53.130Z,1008.8
2016-09-20T00:39:53.489Z,1008.81
2016-09-20T00:40:53.027Z,1008.78
2016-09-20T00:41:53.558Z,1008.76
2016-09-20T00:42:53.461Z,1008.78
2016-09-20T00:43:52.903Z,1008.77
2016-09-20T00:44:54.151Z,1008.76
2016-09-20T00:45:53.509Z,1008.78
2016-09-20T00:46:54.118Z,1008.77
2016-09-20T00:47:53.439Z,1008.75
2016-09-20T00:48:53.200Z,1008.71
2016-09-20T00:49:54.027Z,1008.78
2016-09-20T00:50:53.221Z,1008.7
2016-09-20T00:51:54.041Z,1008.79
2016-09-20T00:52:52.973Z,1008.77
2016-09-20T00:53:52.982Z,1008.77
2016-09-20T00:54:53.429Z,1008.77
2016-09-20T00:55:53.456Z,1008.72
2016-09-20T00:56:53.099Z,1008.71
2016-09-20T00:57:53.156Z,1008.73
2016-09-20T00:58:53.826Z,1008.75
2016-09-20T00:59:54.139Z,1008.7
2016-09-20T01:00:53.739Z,1008.71
2016-09-20T01:01:54.255Z,1008.68
2016-09-20T01:02:53.164Z,1008.69
2016-09-20T01:03:53.144Z,1008.69
2016-09-20T01:04:54.032Z,1008.68
2016-09-20T01:05:53.800Z,1008.65
2016-09-20T01:06:54.316Z,1008.67
2016-09-20T01:07:53.496Z,1008.69
2016-09-20T01:08:53.977Z,1008.65
2016-09-20T01:09:53.817Z,1008.64
2016-09-20T01:10:54.046Z,1008.63
2016-09-20T01:11:54.240Z,1008.63
2016-09-20T01:12:53.970Z,1008.61
2016-09-20T01:13:53.969Z,1008.57
2016-09-20T01:14:53.686Z,1008.58
2016-09-20T01:15:55.156Z,1008.55
2016-09-20T01:16:53.760Z,1008.56
2016-09-20T01:17:54.231Z,1008.57
2016-09-20T01:18:54.569Z,1008.56
2016-09-20T01:19:54.083Z,1008.58
2016-09-20T01:20:54.124Z,1008.55
2016-09-20T01:21:53.959Z,1008.57
2016-09-20T01:22:53.937Z,1008.55
2016-09-20T01:23:54.076Z,1008.51
2016-09-20T01:24:54.590Z,1008.53
2016-09-20T01:25:53.870Z,1008.52
2016-09-20T01:26:54.077Z,1008.55
2016-09-20T01:27:54.317Z,1008.53
2016-09-20T01:28:54.235Z,1008.52
2016-09-20T01:29:54.254Z,1008.5
2016-09-20T01:30:56.440Z,1008.52
2016-09-20T01:31:54.473Z,1008.5
2016-09-20T01:32:54.019Z,1008.48
2016-09-20T01:33:54.211Z,1008.51
2016-09-20T01:34:54.229Z,1008.53
2016-09-20T01:35:54.395Z,1008.52
2016-09-20T01:36:53.924Z,1008.51
2016-09-20T01:37:53.982Z,1008.54
2016-09-20T01:38:54.336Z,1008.55
2016-09-20T01:39:53.935Z,1008.52
2016-09-20T01:40:54.226Z,1008.5
2016-09-20T01:41:54.492Z,1008.51
2016-09-20T01:42:54.038Z,1008.51
2016-09-20T01:43:54.302Z,1008.51
2016-09-20T01:44:54.286Z,1008.52
2016-09-20T01:45:54.268Z,1008.53
2016-09-20T01:46:54.369Z,1008.53
2016-09-20T01:47:54.213Z,1008.53
2016-09-20T01:48:54.567Z,1008.53
2016-09-20T01:49:54.637Z,1008.53
2016-09-20T01:50:54.378Z,1008.5
2016-09-20T01:51:54.634Z,1008.49
2016-09-20T01:52:55.621Z,1008.51
2016-09-20T01:53:54.432Z,1008.5
2016-09-20T01:54:54.743Z,1008.5
2016-09-20T01:55:54.393Z,1008.51
2016-09-20T01:56:54.414Z,1008.46
2016-09-20T01:57:54.420Z,1008.49
2016-09-20T01:58:54.369Z,1008.5
2016-09-20T01:59:54.528Z,1008.47
2016-09-20T02:00:54.593Z,1008.46
2016-09-20T02:01:55.121Z,1008.48
2016-09-20T02:02:54.331Z,1008.48
2016-09-20T02:03:54.571Z,1008.46
2016-09-20T02:04:54.330Z,1008.47
2016-09-20T02:05:55.276Z,1008.47
2016-09-20T02:06:54.884Z,1008.46
2016-09-20T02:07:54.994Z,1008.42
2016-09-20T02:08:54.687Z,1008.41
2016-09-20T02:09:54.515Z,1008.39
2016-09-20T02:10:55.021Z,1008.4
2016-09-20T02:11:55.529Z,1008.4
2016-09-20T02:12:55.368Z,1008.4
2016-09-20T02:13:54.964Z,1008.41
2016-09-20T02:14:54.709Z,1008.41
2016-09-20T02:15:55.203Z,1008.42
2016-09-20T02:16:55.202Z,1008.35
2016-09-20T02:17:54.712Z,1008.37
2016-09-20T02:18:54.849Z,1008.38
2016-09-20T02:19:55.724Z,1008.4
2016-09-20T02:20:55.256Z,1008.44
2016-09-20T02:21:55.046Z,1008.4
2016-09-20T02:22:54.939Z,1008.37
2016-09-20T02:23:54.956Z,1008.39
2016-09-20T02:24:54.884Z,1008.4
2016-09-20T02:25:55.582Z,1008.41
2016-09-20T02:26:56.011Z,1008.38
2016-09-20T02:27:55.558Z,1008.42
2016-09-20T02:28:55.120Z,1008.4
2016-09-20T02:29:54.955Z,1008.39
2016-09-20T02:30:55.078Z,1008.39
2016-09-20T02:31:55.113Z,1008.37
2016-09-20T02:32:55.414Z,1008.34
2016-09-20T02:33:54.922Z,1008.4
2016-09-20T02:34:55.273Z,1008.35
2016-09-20T02:35:55.106Z,1008.4
2016-09-20T02:36:54.921Z,1008.39
2016-09-20T02:37:55.516Z,1008.42
2016-09-20T02:38:55.494Z,1008.38
2016-09-20T02:39:55.271Z,1008.37
2016-09-20T02:40:55.301Z,1008.39
2016-09-20T02:41:55.223Z,1008.38
2016-09-20T02:42:55.086Z,1008.38
2016-09-20T02:43:55.320Z,1008.41
2016-09-20T02:44:55.243Z,1008.4
2016-09-20T02:45:55.287Z,1008.36
2016-09-20T02:46:55.923Z,1008.35
2016-09-20T02:47:55.264Z,1008.4
2016-09-20T02:48:56.001Z,1008.4
2016-09-20T02:49:55.656Z,1008.37
2016-09-20T02:50:56.143Z,1008.37
2016-09-20T02:51:55.409Z,1008.37
2016-09-20T02:52:55.350Z,1008.38
2016-09-20T02:53:55.585Z,1008.41
2016-09-20T02:54:55.606Z,1008.41
2016-09-20T02:55:55.528Z,1008.37
2016-09-20T02:56:56.383Z,1008.4
2016-09-20T02:57:55.635Z,1008.37
2016-09-20T02:58:56.217Z,1008.34
2016-09-20T02:59:55.753Z,1008.36
2016-09-20T03:00:55.573Z,1008.31
2016-09-20T03:01:55.674Z,1008.31
2016-09-20T03:02:55.572Z,1008.33
2016-09-20T03:03:55.885Z,1008.32
2016-09-20T03:04:55.644Z,1008.26
2016-09-20T03:05:55.961Z,1008.3
2016-09-20T03:06:55.628Z,1008.26
2016-09-20T03:07:56.116Z,1008.27
2016-09-20T03:08:55.856Z,1008.29
2016-09-20T03:09:55.729Z,1008.26
2016-09-20T03:10:56.290Z,1008.26
2016-09-20T03:11:56.206Z,1008.3
2016-09-20T03:12:56.271Z,1008.29
2016-09-20T03:13:55.784Z,1008.3
2016-09-20T03:14:56.330Z,1008.28
2016-09-20T03:15:55.882Z,1008.26
2016-09-20T03:16:56.094Z,1008.24
2016-09-20T03:17:56.117Z,1008.25
2016-09-20T03:18:56.934Z,1008.22
2016-09-20T03:19:56.438Z,1008.19
2016-09-20T03:20:56.522Z,1008.21
2016-09-20T03:21:56.506Z,1008.21
2016-09-20T03:22:56.104Z,1008.24
2016-09-20T03:23:56.262Z,1008.22
2016-09-20T03:24:56.402Z,1008.21
2016-09-20T03:25:56.274Z,1008.18
2016-09-20T03:26:56.557Z,1008.17
2016-09-20T03:27:56.454Z,1008.17
2016-09-20T03:28:56.429Z,1008.22
2016-09-20T03:29:56.207Z,1008.22
2016-09-20T03:30:56.265Z,1008.18
2016-09-20T03:31:56.626Z,1008.16
2016-09-20T03:32:56.399Z,1008.14
2016-09-20T03:33:56.546Z,1008.12
2016-09-20T03:34:56.703Z,1008.16
2016-09-20T03:35:56.443Z,1008.16
2016-09-20T03:36:56.624Z,1008.18
2016-09-20T03:37:56.864Z,1008.14
2016-09-20T03:38:57.205Z,1008.15
2016-09-20T03:39:57.531Z,1008.15
2016-09-20T03:40:57.097Z,1008.15
2016-09-20T03:41:56.241Z,1008.17
2016-09-20T03:42:56.521Z,1008.17
2016-09-20T03:43:56.600Z,1008.15
2016-09-20T03:44:56.694Z,1008.13
2016-09-20T03:45:56.865Z,1008.12
2016-09-20T03:46:57.122Z,1008.13
2016-09-20T03:47:56.636Z,1008.14
2016-09-20T03:48:56.666Z,1008.16
2016-09-20T03:49:57.200Z,1008.16
2016-09-20T03:50:57.103Z,1008.18
2016-09-20T03:51:56.762Z,1008.18
2016-09-20T03:52:56.964Z,1008.18
2016-09-20T03:53:56.926Z,1008.2
2016-09-20T03:54:56.851Z,1008.15
2016-09-20T03:55:57.139Z,1008.16
2016-09-20T03:56:56.987Z,1008.21
2016-09-20T03:57:57.580Z,1008.18
2016-09-20T03:58:56.912Z,1008.21
2016-09-20T03:59:56.881Z,1008.19
2016-09-20T04:00:56.981Z,1008.16
2016-09-20T04:01:56.943Z,1008.14
2016-09-20T04:02:57.262Z,1008.1
2016-09-20T04:03:57.313Z,1008.13
2016-09-20T04:04:57.267Z,1008.14
2016-09-20T04:05:58.163Z,1008.11
2016-09-20T04:06:56.935Z,1008.11
2016-09-20T04:07:58.018Z,1008.1
2016-09-20T04:08:56.800Z,1008.11
2016-09-20T04:09:57.474Z,1008.09
2016-09-20T04:10:57.795Z,1008.08
2016-09-20T04:11:57.026Z,1008.07
2016-09-20T04:12:57.604Z,1008.11
2016-09-20T04:13:57.438Z,1008.16
2016-09-20T04:14:57.626Z,1008.13
2016-09-20T04:15:57.143Z,1008.15
2016-09-20T04:16:57.317Z,1008.16
2016-09-20T04:17:57.254Z,1008.16
2016-09-20T04:18:57.350Z,1008.14
2016-09-20T04:19:57.349Z,1008.22
2016-09-20T04:20:57.734Z,1008.19
2016-09-20T04:21:57.311Z,1008.27
2016-09-20T04:22:58.120Z,1008.28
2016-09-20T04:23:57.541Z,1008.27
2016-09-20T04:24:58.258Z,1008.28
2016-09-20T04:25:57.402Z,1008.24
2016-09-20T04:26:57.777Z,1008.26
2016-09-20T04:27:57.908Z,1008.27
2016-09-20T04:28:57.948Z,1008.26
2016-09-20T04:29:57.431Z,1008.3
2016-09-20T04:30:57.961Z,1008.28
2016-09-20T04:31:57.454Z,1008.3
2016-09-20T04:32:57.544Z,1008.3
2016-09-20T04:33:57.580Z,1008.28
2016-09-20T04:34:57.682Z,1008.32
2016-09-20T04:35:57.407Z,1008.32
2016-09-20T04:36:58.253Z,1008.33
2016-09-20T04:37:57.811Z,1008.37
2016-09-20T04:38:59.217Z,1008.35
2016-09-20T04:39:57.979Z,1008.4
2016-09-20T04:40:57.789Z,1008.38
2016-09-20T04:41:57.663Z,1008.35
2016-09-20T04:42:57.784Z,1008.37
2016-09-20T04:43:57.725Z,1008.38
2016-09-20T04:44:57.897Z,1008.39
2016-09-20T04:45:58.035Z,1008.4
2016-09-20T04:46:57.743Z,1008.42
2016-09-20T04:47:58.841Z,1008.43
2016-09-20T04:49:58.177Z,1008.43
2016-09-20T04:50:57.758Z,1008.42
2016-09-20T04:51:58.055Z,1008.44
2016-09-20T04:52:58.228Z,1008.45
2016-09-20T04:53:58.016Z,1008.47
2016-09-20T04:54:58.027Z,1008.51
2016-09-20T04:55:58.045Z,1008.52
2016-09-20T04:56:58.258Z,1008.48
2016-09-20T04:57:58.520Z,1008.48
2016-09-20T04:58:58.207Z,1008.46
2016-09-20T04:59:57.897Z,1008.48
2016-09-20T05:00:58.094Z,1008.54
2016-09-20T05:01:58.152Z,1008.5
2016-09-20T05:02:58.156Z,1008.51
2016-09-20T05:03:58.466Z,1008.51
2016-09-20T05:04:58.188Z,1008.48
2016-09-20T05:05:57.911Z,1008.51
2016-09-20T05:06:59.234Z,1008.53
2016-09-20T05:07:58.495Z,1008.5
2016-09-20T05:08:58.373Z,1008.56
2016-09-20T05:09:58.863Z,1008.51
2016-09-20T05:10:58.979Z,1008.53
2016-09-20T05:11:58.386Z,1008.57
2016-09-20T05:12:58.289Z,1008.59
2016-09-20T05:13:58.732Z,1008.57
2016-09-20T05:14:58.442Z,1008.61
2016-09-20T05:15:58.399Z,1008.62
2016-09-20T05:16:58.939Z,1008.58
2016-09-20T05:17:58.360Z,1008.6
2016-09-20T05:18:58.989Z,1008.63
2016-09-20T05:19:58.663Z,1008.61
2016-09-20T05:20:58.748Z,1008.61
2016-09-20T05:21:58.309Z,1008.6
2016-09-20T05:22:58.375Z,1008.61
2016-09-20T05:23:58.386Z,1008.61
2016-09-20T05:24:58.950Z,1008.59
2016-09-20T05:25:58.507Z,1008.61
2016-09-20T05:26:58.347Z,1008.63
2016-09-20T05:27:59.199Z,1008.62
2016-09-20T05:28:58.893Z,1008.63
2016-09-20T05:29:58.479Z,1008.64
2016-09-20T05:30:58.924Z,1008.67
2016-09-20T05:31:58.792Z,1008.58
2016-09-20T05:32:58.696Z,1008.6
2016-09-20T05:33:58.446Z,1008.65
2016-09-20T05:34:59.058Z,1008.65
2016-09-20T05:35:59.191Z,1008.67
2016-09-20T05:36:59.200Z,1008.66
2016-09-20T05:37:59.329Z,1008.68
2016-09-20T05:38:59.459Z,1008.69
2016-09-20T05:39:58.750Z,1008.67
2016-09-20T05:40:59.173Z,1008.67
2016-09-20T05:41:58.960Z,1008.67
2016-09-20T05:42:58.960Z,1008.69
2016-09-20T05:43:58.916Z,1008.7
2016-09-20T05:44:59.095Z,1008.72
2016-09-20T05:45:59.063Z,1008.73
2016-09-20T05:46:59.760Z,1008.74
2016-09-20T05:47:58.880Z,1008.78
2016-09-20T05:48:59.103Z,1008.76
2016-09-20T05:49:59.109Z,1008.77
2016-09-20T05:50:58.994Z,1008.81
2016-09-20T05:51:58.879Z,1008.8
2016-09-20T05:52:58.886Z,1008.83
2016-09-20T05:53:59.160Z,1008.8
2016-09-20T05:54:58.867Z,1008.83
2016-09-20T05:55:59.183Z,1008.83
2016-09-20T05:56:59.160Z,1008.86
2016-09-20T05:57:59.370Z,1008.88
2016-09-20T05:58:59.689Z,1008.86
2016-09-20T05:59:59.080Z,1008.84
2016-09-20T06:00:59.112Z,1008.85
2016-09-20T06:01:59.402Z,1008.87
2016-09-20T06:02:59.841Z,1008.86
2016-09-20T06:03:59.180Z,1008.85
2016-09-20T06:04:59.736Z,1008.87
2016-09-20T06:05:59.280Z,1008.88
2016-09-20T06:06:59.734Z,1008.91
2016-09-20T06:07:59.880Z,1008.9
2016-09-20T06:08:59.807Z,1008.9
2016-09-20T06:09:59.752Z,1008.92
2016-09-20T06:10:59.641Z,1008.92
2016-09-20T06:11:59.570Z,1008.95
2016-09-20T06:12:59.664Z,1008.95
2016-09-20T06:13:59.335Z,1008.93
2016-09-20T06:14:59.513Z,1008.94
2016-09-20T06:15:59.622Z,1008.96
2016-09-20T06:16:59.595Z,1008.96
2016-09-20T06:17:59.540Z,1008.95
2016-09-20T06:18:59.505Z,1008.97
2016-09-20T06:19:59.947Z,1008.97
2016-09-20T06:20:59.624Z,1008.99
2016-09-20T06:22:00.067Z,1008.96
2016-09-20T06:22:59.781Z,1008.95
2016-09-20T06:23:59.940Z,1008.97
2016-09-20T06:24:59.809Z,1008.97
2016-09-20T06:25:59.978Z,1008.99
2016-09-20T06:27:00.208Z,1009
2016-09-20T06:27:59.597Z,1008.98
2016-09-20T06:28:59.800Z,1009.02
2016-09-20T06:30:00.218Z,1009.05
2016-09-20T06:30:59.810Z,1009.04
2016-09-20T06:32:00.257Z,1009.01
2016-09-20T06:32:59.829Z,1009.06
2016-09-20T06:34:00.136Z,1008.98
2016-09-20T06:34:59.817Z,1009.01
2016-09-20T06:35:59.729Z,1009
2016-09-20T06:36:59.812Z,1009.03
2016-09-20T06:38:00.153Z,1009.04
2016-09-20T06:39:00.192Z,1009.09
2016-09-20T06:40:00.336Z,1009.06
2016-09-20T06:41:00.167Z,1009.07
2016-09-20T06:42:00.632Z,1009.11
2016-09-20T06:43:00.468Z,1009.09
2016-09-20T06:44:01.820Z,1009.12
2016-09-20T06:44:59.924Z,1009.1
2016-09-20T06:46:00.596Z,1009.09
2016-09-20T06:47:00.277Z,1009.06
2016-09-20T06:48:00.032Z,1009.1
2016-09-20T06:49:00.234Z,1009.08
2016-09-20T06:50:00.210Z,1009.1
2016-09-20T06:51:00.655Z,1009.1
2016-09-20T06:52:00.405Z,1009.14
2016-09-20T06:53:00.249Z,1009.15
2016-09-20T06:54:00.134Z,1009.12
2016-09-20T06:55:00.589Z,1009.16
2016-09-20T06:56:01.105Z,1009.13
2016-09-20T06:57:00.198Z,1009.13
2016-09-20T06:58:00.601Z,1009.15
2016-09-20T06:59:00.145Z,1009.16
2016-09-20T07:00:00.498Z,1009.14
2016-09-20T07:01:00.371Z,1009.17
2016-09-20T07:02:00.493Z,1009.13
2016-09-20T07:04:00.716Z,1009.12
2016-09-20T07:05:00.734Z,1009.13
2016-09-20T07:06:00.540Z,1009.16
2016-09-20T07:07:00.454Z,1009.18
2016-09-20T07:08:00.707Z,1009.19
2016-09-20T07:09:00.947Z,1009.18
2016-09-20T07:10:00.477Z,1009.21
2016-09-20T07:11:00.804Z,1009.22
2016-09-20T07:12:00.453Z,1009.2
2016-09-20T07:13:00.688Z,1009.23
2016-09-20T07:14:00.793Z,1009.26
2016-09-20T07:15:01.085Z,1009.23
2016-09-20T07:16:00.993Z,1009.24
2016-09-20T07:17:01.085Z,1009.29
2016-09-20T07:18:00.679Z,1009.29
2016-09-20T07:19:00.798Z,1009.28
2016-09-20T07:20:00.848Z,1009.3
2016-09-20T07:21:00.928Z,1009.29
2016-09-20T07:22:01.288Z,1009.3
2016-09-20T07:23:01.307Z,1009.28
2016-09-20T07:24:00.884Z,1009.28
2016-09-20T07:25:00.879Z,1009.29
2016-09-20T07:26:01.037Z,1009.23
2016-09-20T07:27:01.341Z,1009.24
2016-09-20T07:28:00.937Z,1009.28
2016-09-20T07:29:00.767Z,1009.32
2016-09-20T07:30:00.763Z,1009.36
2016-09-20T07:31:01.227Z,1009.32
2016-09-20T07:32:00.842Z,1009.37
2016-09-20T07:33:01.487Z,1009.36
2016-09-20T07:34:01.347Z,1009.39
2016-09-20T07:35:00.966Z,1009.41
2016-09-20T07:36:01.132Z,1009.37
2016-09-20T07:37:02.209Z,1009.4
2016-09-20T07:38:01.143Z,1009.44
2016-09-20T07:39:01.313Z,1009.44
2016-09-20T07:40:01.176Z,1009.45
2016-09-20T07:41:01.257Z,1009.44
2016-09-20T07:42:01.152Z,1009.49
2016-09-20T07:43:01.190Z,1009.49
2016-09-20T07:44:01.265Z,1009.49
2016-09-20T07:45:02.385Z,1009.54
2016-09-20T07:46:01.687Z,1009.54
2016-09-20T07:47:01.695Z,1009.54
2016-09-20T07:48:01.470Z,1009.54
2016-09-20T07:49:01.892Z,1009.53
2016-09-20T07:50:01.533Z,1009.54
2016-09-20T07:51:01.320Z,1009.54
2016-09-20T07:52:01.577Z,1009.57
2016-09-20T07:53:02.013Z,1009.55
2016-09-20T07:54:01.375Z,1009.54
2016-09-20T07:55:01.679Z,1009.53
2016-09-20T07:56:01.833Z,1009.57
2016-09-20T07:57:01.982Z,1009.61
2016-09-20T07:58:02.281Z,1009.56
2016-09-20T07:59:01.897Z,1009.59
2016-09-20T08:00:01.775Z,1009.55
2016-09-20T08:01:01.698Z,1009.58
2016-09-20T08:02:02.321Z,1009.61
2016-09-20T08:03:01.665Z,1009.62
2016-09-20T08:04:01.737Z,1009.6
2016-09-20T08:05:02.205Z,1009.6
2016-09-20T08:06:01.740Z,1009.61
2016-09-20T08:07:01.676Z,1009.6
2016-09-20T08:08:02.429Z,1009.63
2016-09-20T08:09:02.113Z,1009.66
2016-09-20T08:10:02.177Z,1009.65
2016-09-20T08:11:01.699Z,1009.63
2016-09-20T08:12:01.668Z,1009.64
2016-09-20T08:13:02.197Z,1009.66
2016-09-20T08:14:02.352Z,1009.66
2016-09-20T08:15:02.100Z,1009.71
2016-09-20T08:16:02.343Z,1009.72
2016-09-20T08:17:01.902Z,1009.69
2016-09-20T08:18:01.984Z,1009.72
2016-09-20T08:19:02.022Z,1009.73
2016-09-20T08:20:02.219Z,1009.78
2016-09-20T08:21:02.123Z,1009.76
2016-09-20T08:22:01.892Z,1009.83
2016-09-20T08:23:02.489Z,1009.8
2016-09-20T08:24:02.199Z,1009.8
2016-09-20T08:25:02.474Z,1009.8
2016-09-20T08:26:02.367Z,1009.83
2016-09-20T08:27:02.740Z,1009.82
2016-09-20T08:28:03.157Z,1009.83
2016-09-20T08:29:02.314Z,1009.87
2016-09-20T08:30:02.844Z,1009.82
2016-09-20T08:31:02.817Z,1009.86
2016-09-20T08:32:02.545Z,1009.89
2016-09-20T08:33:02.356Z,1009.9
2016-09-20T08:34:02.303Z,1009.9
2016-09-20T08:35:02.648Z,1009.94
2016-09-20T08:36:03.061Z,1009.91
2016-09-20T08:37:02.245Z,1009.91
2016-09-20T08:38:02.365Z,1009.92
2016-09-20T08:39:03.154Z,1009.97
2016-09-20T08:40:02.647Z,1009.96
2016-09-20T08:41:02.692Z,1009.93
2016-09-20T08:42:02.882Z,1009.92
2016-09-20T08:43:03.026Z,1009.94
2016-09-20T08:44:02.544Z,1009.92
2016-09-20T08:45:03.419Z,1009.95
2016-09-20T08:46:03.138Z,1009.94
2016-09-20T08:47:02.953Z,1009.92
2016-09-20T08:48:03.195Z,1009.91
2016-09-20T08:49:02.851Z,1009.92
2016-09-20T08:50:02.792Z,1009.9
2016-09-20T08:51:02.600Z,1009.94
2016-09-20T08:52:02.822Z,1009.95
2016-09-20T08:53:02.926Z,1009.9
2016-09-20T08:54:02.844Z,1009.94
2016-09-20T08:55:02.866Z,1009.91
2016-09-20T08:56:02.899Z,1009.91
2016-09-20T08:57:02.761Z,1009.89
2016-09-20T08:58:02.662Z,1009.9
2016-09-20T08:59:03.006Z,1009.86
2016-09-20T09:00:03.511Z,1009.91
2016-09-20T09:01:03.003Z,1009.91
2016-09-20T09:02:03.096Z,1009.84
2016-09-20T09:03:02.780Z,1009.89
2016-09-20T09:04:04.040Z,1009.85
2016-09-20T09:05:03.369Z,1009.87
2016-09-20T09:06:03.440Z,1009.83
2016-09-20T09:07:03.254Z,1009.84
2016-09-20T09:08:02.924Z,1009.78
2016-09-20T09:09:03.242Z,1009.82
2016-09-20T09:10:03.345Z,1009.81
2016-09-20T09:11:03.256Z,1009.84
2016-09-20T09:12:03.718Z,1009.84
2016-09-20T09:13:03.034Z,1009.85
2016-09-20T09:14:02.902Z,1009.82
2016-09-20T09:15:03.111Z,1009.84
2016-09-20T09:16:04.027Z,1009.84
2016-09-20T09:17:04.475Z,1009.81
2016-09-20T09:18:03.205Z,1009.82
2016-09-20T09:19:03.113Z,1009.83
2016-09-20T09:20:03.672Z,1009.84
2016-09-20T09:21:03.389Z,1009.81
2016-09-20T09:22:03.536Z,1009.79
2016-09-20T09:23:03.208Z,1009.89
2016-09-20T09:24:03.398Z,1009.86
2016-09-20T09:25:03.277Z,1009.88
2016-09-20T09:26:03.477Z,1009.92
2016-09-20T09:27:03.661Z,1009.92
2016-09-20T09:28:03.274Z,1009.96
2016-09-20T09:29:04.361Z,1009.92
2016-09-20T09:30:03.607Z,1009.94
2016-09-20T09:31:03.500Z,1009.92
2016-09-20T09:32:04.462Z,1009.93
2016-09-20T09:33:03.756Z,1009.94
2016-09-20T09:34:04.124Z,1009.95
2016-09-20T09:35:03.486Z,1009.89
2016-09-20T09:36:03.749Z,1009.9
2016-09-20T09:37:03.817Z,1009.87
2016-09-20T09:38:03.865Z,1009.87
2016-09-20T09:39:04.059Z,1009.85
2016-09-20T09:40:03.814Z,1009.87
2016-09-20T09:41:03.696Z,1009.88
2016-09-20T09:42:03.897Z,1009.91
2016-09-20T09:43:03.992Z,1009.89
2016-09-20T09:44:04.056Z,1009.9
2016-09-20T09:45:04.510Z,1009.88
2016-09-20T09:46:03.832Z,1009.87
2016-09-20T09:47:04.151Z,1009.86
2016-09-20T09:48:04.392Z,1009.85
2016-09-20T09:49:03.915Z,1009.86
2016-09-20T09:50:04.202Z,1009.86
2016-09-20T09:51:03.923Z,1009.84
2016-09-20T09:52:03.941Z,1009.84
2016-09-20T09:53:03.843Z,1009.82
2016-09-20T09:54:04.259Z,1009.8
2016-09-20T09:55:05.409Z,1009.79
2016-09-20T09:56:04.074Z,1009.75
2016-09-20T09:57:04.431Z,1009.76
2016-09-20T09:58:04.473Z,1009.73
2016-09-20T09:59:04.306Z,1009.73
2016-09-20T10:00:04.345Z,1009.73
2016-09-20T10:01:04.431Z,1009.75
2016-09-20T10:02:04.399Z,1009.74
2016-09-20T10:03:04.172Z,1009.74
2016-09-20T10:04:04.707Z,1009.73
2016-09-20T10:05:04.342Z,1009.65
2016-09-20T10:06:04.170Z,1009.65
2016-09-20T10:07:04.474Z,1009.66
2016-09-20T10:08:04.902Z,1009.66
2016-09-20T10:09:04.724Z,1009.65
2016-09-20T10:10:04.750Z,1009.61
2016-09-20T10:11:04.984Z,1009.61
2016-09-20T10:12:04.634Z,1009.6
2016-09-20T10:13:04.584Z,1009.56
2016-09-20T10:14:05.642Z,1009.6
2016-09-20T10:15:04.826Z,1009.51
2016-09-20T10:16:04.747Z,1009.51
2016-09-20T10:17:04.627Z,1009.52
2016-09-20T10:18:04.889Z,1009.51
2016-09-20T10:19:05.131Z,1009.53
2016-09-20T10:20:05.225Z,1009.49
2016-09-20T10:21:05.140Z,1009.49
2016-09-20T10:22:05.189Z,1009.44
2016-09-20T10:23:04.578Z,1009.47
2016-09-20T10:24:05.008Z,1009.46
2016-09-20T10:25:05.536Z,1009.46
2016-09-20T10:26:04.911Z,1009.49
2016-09-20T10:27:05.195Z,1009.51
2016-09-20T10:28:04.908Z,1009.55
2016-09-20T10:29:06.042Z,1009.51
2016-09-20T10:30:05.009Z,1009.54
2016-09-20T10:31:05.062Z,1009.54
2016-09-20T10:32:05.332Z,1009.46
2016-09-20T10:33:05.852Z,1009.49
2016-09-20T10:34:05.115Z,1009.43
2016-09-20T10:35:05.292Z,1009.47
2016-09-20T10:36:05.801Z,1009.42
2016-09-20T10:37:05.137Z,1009.53
2016-09-20T10:38:05.113Z,1009.5
2016-09-20T10:39:05.034Z,1009.45
2016-09-20T10:40:05.310Z,1009.46
2016-09-20T10:41:05.626Z,1009.41
2016-09-20T10:42:05.417Z,1009.35
2016-09-20T10:43:05.426Z,1009.31
2016-09-20T10:44:05.466Z,1009.32
2016-09-20T10:45:05.335Z,1009.25
2016-09-20T10:46:05.411Z,1009.26
2016-09-20T10:47:05.861Z,1009.24
2016-09-20T10:48:05.753Z,1009.22
2016-09-20T10:49:05.916Z,1009.21
2016-09-20T10:50:05.310Z,1009.21
2016-09-20T10:51:05.488Z,1009.22
2016-09-20T10:52:05.687Z,1009.24
2016-09-20T10:53:05.540Z,1009.21
2016-09-20T10:54:05.707Z,1009.23
2016-09-20T10:55:05.747Z,1009.22
2016-09-20T10:56:05.674Z,1009.19
2016-09-20T10:57:05.875Z,1009.18
2016-09-20T10:58:05.474Z,1009.18
2016-09-20T10:59:06.508Z,1009.21
2016-09-20T11:00:05.820Z,1009.21
2016-09-20T11:01:05.648Z,1009.2
2016-09-20T11:02:05.947Z,1009.22
2016-09-20T11:03:05.830Z,1009.18
2016-09-20T11:04:06.331Z,1009.25
2016-09-20T11:05:05.657Z,1009.3
2016-09-20T11:06:05.876Z,1009.41
2016-09-20T11:07:05.751Z,1009.46
2016-09-20T11:08:06.008Z,1009.47
2016-09-20T11:09:06.121Z,1009.48
2016-09-20T11:10:06.306Z,1009.48
2016-09-20T11:11:06.722Z,1009.42
2016-09-20T11:12:06.245Z,1009.46
2016-09-20T11:13:06.244Z,1009.42
2016-09-20T11:14:06.373Z,1009.44
2016-09-20T11:15:06.068Z,1009.47
2016-09-20T11:16:06.292Z,1009.46
2016-09-20T11:17:06.156Z,1009.44
2016-09-20T11:18:06.568Z,1009.44
2016-09-20T11:19:06.232Z,1009.41
2016-09-20T11:20:07.153Z,1009.47
2016-09-20T11:21:06.484Z,1009.48
2016-09-20T11:22:06.396Z,1009.38
2016-09-20T11:23:06.539Z,1009.33
2016-09-20T11:24:06.583Z,1009.32
2016-09-20T11:25:06.965Z,1009.38
2016-09-20T11:26:07.138Z,1009.32
2016-09-20T11:27:06.538Z,1009.38
2016-09-20T11:28:06.677Z,1009.3
2016-09-20T11:29:07.294Z,1009.24
2016-09-20T11:30:06.633Z,1009.17
2016-09-20T11:31:06.686Z,1009.16
2016-09-20T11:32:06.875Z,1009.17
2016-09-20T11:33:06.909Z,1009.19
2016-09-20T11:34:06.630Z,1009.21
2016-09-20T11:35:06.839Z,1009.19
2016-09-20T11:36:07.371Z,1009.14
2016-09-20T11:37:06.869Z,1009.09
2016-09-20T11:38:07.233Z,1009.01
2016-09-20T11:39:06.978Z,1009.03
2016-09-20T11:40:06.962Z,1009.05
2016-09-20T11:41:06.972Z,1009.02
2016-09-20T11:42:08.009Z,1009.03
2016-09-20T11:43:06.916Z,1009.03
2016-09-20T11:44:07.542Z,1009.02
2016-09-20T11:45:07.554Z,1009.04
2016-09-20T11:46:07.285Z,1008.99
2016-09-20T11:47:07.332Z,1009
2016-09-20T11:48:07.432Z,1008.99
2016-09-20T11:49:07.119Z,1008.99
2016-09-20T11:50:07.389Z,1009.08
2016-09-20T11:51:07.191Z,1009.02
2016-09-20T11:52:07.911Z,1009.02
2016-09-20T11:53:07.306Z,1009
2016-09-20T11:54:08.386Z,1009
2016-09-20T11:55:07.441Z,1008.98
2016-09-20T11:56:07.233Z,1008.95
2016-09-20T11:57:08.395Z,1008.99
2016-09-20T11:58:07.832Z,1009.05
2016-09-20T11:59:07.880Z,1008.95
2016-09-20T12:00:07.387Z,1008.95
2016-09-20T12:01:08.534Z,1009.01
2016-09-20T12:02:07.800Z,1009.05
2016-09-20T12:03:08.206Z,1009.05
2016-09-20T12:04:08.178Z,1009.13
2016-09-20T12:05:07.833Z,1009.12
2016-09-20T12:06:07.740Z,1009.08
2016-09-20T12:07:08.443Z,1009.12
2016-09-20T12:08:07.792Z,1009.06
2016-09-20T12:09:08.301Z,1009
2016-09-20T12:10:08.098Z,1008.96
2016-09-20T12:11:08.749Z,1008.91